Find this page online at www.coolrunning.com/results/02/ma/Oct20_17thAn_set1.shtml

17th Annual Veryfine - Littleton Rotary Road Races

Littleton, MA, October 20, 2002

[Top Ten Males & Females 5 Mile | Age Groups 5 Mile | Veryfine Age Groups 5 Mile | Overall Results 2.4 Mile | Top Ten Males & Females 2.4 Mile | Age Groups 2.4 Mile | Veryfine Age Groups 2.4 Mile ]

Overall Results 5 Mile

Photos courtesy of Ted Tyler

                     17TH ANNUAL VERYFINE-LITTLETON
                         5-MILE ROTARY ROAD RACE
October 20, 2002   5 Miles USATF Certified (#MA86017JMC)   Littleton, MA
Timing By:  GRANITE STATE RACE SERVICES  (603)863-2537      www.gsrs.com
================================================================================
PLACE DIV/TOT  DIV   TIME     PACE  NAME                   AG S RACE# CITY/STATE              VERYFINE
===== ======== ===== =======  ===== ====================== == = ===== ======================= =========
   1   1/14   M4549   28:43   5:45 TIM BLOUIN             45 M   226 TEMPLETON MA
   2   1/18   M3539   29:31   5:55 MARK WALTERMIRE        39 M   301 LUNENBURG MA
   3   1/29   M4044   29:34   5:55 WAYNE BORDEN           43 M   250 WHITINSVILLE MA
   4   2/18   M3539   29:36   5:56 SCOT KEAHANE           37 M   254 LITTLETON MA
   5   2/29   M4044   30:06   6:02 MICHAEL ZACKIN         44 M   185 SUDBURY MA
   6   3/29   M4044   30:28   6:06 STEVE PENNEY           40 M   143 GARDNER MA
   7   1/18   M5054   30:36   6:08 CHARLES SALMOND JR     50 M   131 FITCHBURG MA
   8   1/2    M2024   31:09   6:14 JOHN KIHNER            23 M   262 HARVARD MA
   9   4/29   M4044   31:31   6:19 PAUL DERUZZO           43 M   285 BEDFORD MA
  10   2/14   M4549   31:39   6:20 MARC SAUCIER           46 M   176 LITTLETON MA
  11   3/18   M3539   31:44   6:21 JEFF GOULD             38 M   240 WESTMINSTER MA
  12   5/29   M4044   32:01   6:25 JOE FISCHETTI          42 M   198 GROTON MA
  13   4/18   M3539   32:07   6:26 JIM DEMERITT           35 M   280 ACTON MA
  14   6/29   M4044   32:11   6:27 BOB MORAN              41 M   224 AYER MA
  15   2/18   M5054   32:29   6:30 ROGER NASATKA          50 M   287 WESTFORD MA
  16   5/18   M3539   32:30   6:30 KRISHNA NARAYANASWAMY  37 M    23 ACTON MA
  17                  32:38   6:32 LEE PANAS                 M   132 CHELMSFORD MA
  18   1/4    M6064   32:51*  6:35 DOUG MACGREGOR         63 M   222 LEBANON NH
  19   1/11   F4044   32:55   6:35 MARGO WEBBER           42 F   237 BOXBORO MA
  20   3/18   M5054   33:10   6:38 GORDON FITZGEARLD      51 M   282 MAYNARD MA
  21   6/18   M3539   33:38   6:44 MARK GALLAGHER         38 M   245 CHELMSFORD MA
  22   4/18   M5054   33:59   6:48 JONATHAN FITT          51 M   243 NASHUA NH
  23   1/2    M1014   34:00   6:48 DANIEL RICHTER         13 M   206 LITTLETON MA
  24   1/7    F3034   34:13   6:51 SUSAN LANGLOIS         34 F   283 CHELMSFORD MA
  25   1/7    M5559   34:55   6:59 STEVE KANARACUS        57 M   271 LOWELL MA
  26   7/29   M4044   35:04   7:01 GARRETT CASEY          44 M    89 LITTLETON MA
  27   8/29   M4044   35:06   7:02 PAUL MILLER            41 M   130 CHELMSFORD MA
  28   9/29   M4044   35:16   7:04 DAVID CHAPIN           44 M    59 MILFORD NH
  29   1/4    F1519   35:18   7:04 JAYNA MCCARRON         17 F    36 LUNENBURG MA
  30   3/14   M4549   35:18   7:04 ROBERT FRIMANSON       48 M   239 NUTTING LAKE MA
  31   7/18   M3539   35:40   7:08 PETER FLOSS            39 M   211 LITTLETON MA
  32   1/2    M6569   36:14   7:15 DON BELL               65 M   107 BELLINGHAM MA
  33   4/14   M4549   36:15   7:15 ROB MOODIE             49 M     3 LITTLETON MA
  34   5/18   M5054   36:17   7:16 PETER MCCARRON         50 M    35 LUNENBURG MA
  35   2/11   F4044   36:20   7:16 KIMBERLEY FITCH        40 F    79 ACTON MA
  36   1/3    M2529   36:23   7:17 CHRIS NORTON           26 M   251 FITCHBURG MA
  37  10/29   M4044   36:33   7:19 BOB HOOPES             42 M   277 NASHUA NH
  38   8/18   M3539   36:39   7:20 CHRIS RUSSELL          39 M   228 LITTLETON MA
  39   5/14   M4549   36:47   7:22 TOM CALDWELL           49 M    99 CONCORD MA
  40   6/18   M5054   36:51   7:23 NEIL LEBLANC           53 M   227 ATHOL MA
  41  11/29   M4044   36:53   7:23 MICHAEL OLIVEIRA       43 M   115 DUNSTABLE MA
  42   2/7    M5559   37:06   7:26 BARRY PEARSON          58 M   255 CHELMSFORD MA
  43   3/11   F4044   37:16   7:28 ANDREA PIERCE          43 F   196 HOLLIS NH
  44  12/29   M4044   37:19   7:28 ANDREW BLANCHARD       42 M    86 GARDNER MA
  45   1/2    F2024   37:22   7:29 HANNAH ROWE            22 F   194 BRIGHTON MA
  46   6/14   M4549   37:22   7:29 DON SLASON             49 M   230 DEDHAM MA
  47   9/18   M3539   37:23   7:29 GLENN BURLAMACHI       36 M    48 N CHELMSFORD MA
  48   1/4    F5054   37:32   7:31 PEG BUXTON             54 F   276 STERLING MA
  49   2/4    F1519   37:37   7:32 JULIE COLEMAN          17 F    67 GROTON MA               VERYFINE
  50   1/1    M1519   37:37   7:32 DANIEL VAN SCHALKWYK   18 M    65 GROTON MA
 10/20/2002  5:03PM
* Under USATF Age-Group guideline

                                                                     Page 2
                     17TH ANNUAL VERYFINE-LITTLETON
                         5-MILE ROTARY ROAD RACE
October 20, 2002   5 Miles USATF Certified (#MA86017JMC)   Littleton, MA
Timing By:  GRANITE STATE RACE SERVICES  (603)863-2537      www.gsrs.com
================================================================================
PLACE DIV/TOT  DIV   TIME     PACE  NAME                   AG S RACE# CITY/STATE              VERYFINE
===== ======== ===== =======  ===== ====================== == = ===== ======================= =========
  51  13/29   M4044   37:37   7:32 DI ZHAE                43 M   264 WESTFORD MA
  52   2/4    M6064   37:40   7:32 WARREN CHURCH          62 M   253 CHAPLIN CT
  53   2/7    F3034   37:42   7:33 NANCY FITCH            34 F   279 ACTON MA
  54   7/18   M5054   37:42   7:33 TOM HIDRETH            52 M   244 TYNGSBORO MA
  55  10/18   M3539   37:49   7:34 ANTHONY CALI           35 M   259 FITCHBURG MA
  56   4/11   F4044   37:51   7:35 KATHY PETERSON         43 F   218 NEEDHAM MA
  57  14/29   M4044   37:54   7:35 BILL DINARDO           43 M   102 WINCHENDON MA
  58                  37:57   7:36 JAMES SICARD              M   257 FITCHBURG MA
  59   7/14   M4549   37:57   7:36 BRIAN GLEASON          45 M   261 LEOMINSTER MA
  60   1/6    F4549   38:03   7:37 VALARIE HAMLETT        47 F   229 ATHOL MA
  61  15/29   M4044   38:03   7:37 DAVID ANDERSON         43 M   200 GROTON MA
  62   2/6    F4549   38:04   7:37 DARLENE MURRAY         46 F   171 STERLING MA
  63   5/11   F4044   38:09   7:38 ELIZABETH OLIVEIRA     42 F   114 DUNSTABLE MA
  64   3/4    M6064   38:13   7:39 ED KLEBE               63 M   234 WOBURN MA
  65   1/13   F3539   38:22   7:41 SUSAN CASEY            37 F    90 LITTLETON MA
  66   3/4    F1519   38:23   7:41 REBECCA LEVESQUE       16 F    24 NEW IPSWICH NH
  67   8/18   M5054   38:23   7:41 CHRIS TOOMEY           50 M   267 CONCORD MA
  68  11/18   M3539   38:23   7:41 MARK HERMAN            39 M   260 WESTFORD MA
  69   9/18   M5054   38:31   7:43 JOHN DEWEY             50 M    51 LITTLETON MA
  70   8/14   M4549   38:31   7:43 DAVID SHAUGHNESSEY     45 M   295 WESTFORD MA
  71                  38:34   7:43 JOHN KASSABIAN            M   164 ACTON MA
  72   3/6    F4549   38:37   7:44 DOROTHY BOYLE          46 F   193 CONCORD MA
  73   3/7    F3034   38:37   7:44 DEBORAH SENDROWSKI     33 F    34 STERLING MA
  74   6/11   F4044   38:42   7:45 DONNA LEBLANC          42 F    31 SUTTON MA
  75  16/29   M4044   38:44   7:45 MARK SCAFIDI           42 M    75 AYER MA
  76  17/29   M4044   38:52   7:47 FRED DILIDDO           44 M   273 HOLDEN MA
  77   2/3    M2529   39:05   7:49 MICHAEL MANGIATILO     25 M   292 STOW MA
  78   2/2    F2024   39:05   7:49 HEATHER NAVIEN         22 F   291 HOPKINTON MA
  79  12/18   M3539   39:09   7:50 PETER DEMERS           37 M   133 UXBRIDGE MA
  80  10/18   M5054   39:14   7:51 JOHN KLECZKA           53 M   152 LUNENBURG MA
  81   4/7    F3034   39:15   7:51 PEGGY SCHWARZEL        31 F   233 CHELMSFORD MA
  82  11/18   M5054   39:26   7:54 KEN SMITH              52 M    38 WESTFORD MA
  83   4/6    F4549   39:47   7:58 LAURA JACOBS           48 F   294 ACTON MA
  84   4/4    M6064   39:52   7:59 LARRY TELFORD          61 M    97 BEDFORD MA
  85  13/18   M3539   39:58   8:00 DENNIS MCEVOY          38 M    22 GROTON MA
  86  12/18   M5054   40:00   8:00 DAVID MORSE            50 M   299 CAMBRIDGE MA
  87   2/13   F3539   40:03   8:01 SUSAN LYNCH            37 F   238 PEPPERELL MA
  88  14/18   M3539   40:05   8:01 MICHAEL SMITH          35 M   220 KEENE NH
  89   9/14   M4549   40:17   8:04 JOSEPH MAFERA          45 M    18 LUNENBURG MA
  90  18/29   M4044   40:27   8:06 NATHANIEL PAXTON       43 M   223 LITTLETON MA
  91   4/4    F1519   40:43   8:09 EMILY ZIMMERMAN        16 F   166 LITTLETON MA
  92   3/13   F3539   41:03   8:13 SARAH WINKLEY          35 F   281 BELMONT MA
  93   7/11   F4044   41:12   8:15 NANCY PERLA            42 F   149 LEOMINSTER MA
  94   4/13   F3539   41:23   8:17 JOYCE GOSSELIN         36 F   258 LEOMINSTER MA           VERYFINE
  95   5/13   F3539   41:38   8:20 KIM DEMERS             36 F   134 UXBRIDGE MA
  96   1/5    F5559   41:42   8:21 SHERRY GORDON          55 F   232 ARLINGTON MA
  97   6/13   F3539   41:53   8:23 DONNA MACULEY          35 F   263 MARLBORO MA
  98  13/18   M5054   41:55   8:23 JACK MAHONEY III       52 M   159 WORCESTER MA
  99  10/14   M4549   41:58   8:24 MATTHEW SEPE           45 M   127 LOWELL MA               VERYFINE
 100   7/13   F3539   42:06   8:26 LISA PARADIS           36 F    28 BOLTON MA
 10/20/2002  5:03PM


                                                                     Page 3
                     17TH ANNUAL VERYFINE-LITTLETON
                         5-MILE ROTARY ROAD RACE
October 20, 2002   5 Miles USATF Certified (#MA86017JMC)   Littleton, MA
Timing By:  GRANITE STATE RACE SERVICES  (603)863-2537      www.gsrs.com
================================================================================
PLACE DIV/TOT  DIV   TIME     PACE  NAME                   AG S RACE# CITY/STATE              VERYFINE
===== ======== ===== =======  ===== ====================== == = ===== ======================= =========
 101  11/14   M4549   42:21   8:29 ALAN DAVIS             45 M   284 DUNSTABLE MA
 102   8/13   F3539   42:31   8:31 YVONNE ABEL            37 F   297 CAMBRIDGE MA
 103   5/7    F3034   42:32   8:31 MARY LANTIN            30 F   296 BOSTON MA
 104   3/7    M5559   42:48   8:34 BARNEY HASTINGS        58 M   275 CLINTON MA
 105   1/1    M7074   42:49   8:34 JOHN DI COMANDREA      74 M   181 REVERE MA
 106   9/13   F3539   42:51   8:35 KELLY HANSEL           38 F   266 LUNENBURG MA
 107   8/11   F4044   42:51   8:35 SUE COTE               40 F    61 LUNENBURG MA
 108   2/2    M2024   42:57   8:36 MICHAEL PATTERSON      24 M   300 BOXBORO MA
 109  14/18   M5054   43:03   8:37 TOM O'HALLORAN         54 M    84 LITTLETON MA
 110   2/2    M1014   43:09   8:38 CHRIS FUNCH            13 M    69 GROTON MA
 111  12/14   M4549   43:17   8:40 SCOTT BILODEAU         48 M    49 FITCHBURG MA
 112  19/29   M4044   43:22   8:41 BRIAN CLARK            42 M   286 MAYNARD MA
 113  15/18   M5054   43:24   8:41 PAUL FUNCH             52 M    72 GROTON MA
 114  20/29   M4044   43:35   8:43 DONALD ROBINSON        44 M   142 NEWTON MA
 115   4/7    M5559   43:42   8:45 DAVID GORDON           58 M   215 LITTLETON MA
 116  16/18   M5054   43:52   8:47 ROBERT MAGNER          53 M    82 LITTLETON MA
 117   2/4    F5054   44:02   8:49 DONNIE FUNCH           51 F    71 GROTON MA
 118   9/11   F4044   44:09   8:50 KATHLEEN O'BRIEN       42 F   272 WESTFORD MA
 119                  44:24   8:53 BRIAN DELLECHINIE         M    33 WINCHENDON MA
 120   2/2    M6569   44:27   8:54 BOB FEE                67 M   108 CHELSEA MA
 121   6/7    F3034   44:29   8:54 KRIS LEFEBVRE          34 F   288 CHELMSFORD MA
 122  15/18   M3539   44:30   8:54 BOB SULLIVAN           38 M   289 CHELMSFORD MA
 123   3/4    F5054   44:43   8:57 KATHY ZIMMERMAN        50 F   167 LITTLETON MA
 124  21/29   M4044   44:49   8:58 GEORGE BLACKWELL       44 M   118 WESTBORO MA
 125   2/5    F5559   45:03   9:01 DOLLY LEMOINE          59 F   105 SALEM NH
 126   1/3    F2529   45:08   9:02 JENNIFER CORRAO        26 F    15 BOXBORO MA
 127   3/5    F5559   45:11   9:03 JEAN BELL              56 F    20 BELLINGHAM MA
 128   4/4    F5054   45:12   9:03 PAMELA THOMAS          52 F    60 WALTHAM MA
 129   1/1    F1014   45:15   9:03 KRISTIN PARK           12 F    53 HARVARD MA
 130   7/7    F3034   45:21   9:05 MARIANNE CALESS        33 F   172 SHIRLEY MA
 131  22/29   M4044   45:22   9:05 ANDREW PARK            41 M    50 HARVARD MA
 132  13/14   M4549   45:32   9:07 ED PARKER              48 M   278 LYNNFIELD MA
 133  23/29   M4044   45:55   9:11 JOHN RZEZUSKI          42 M    95 LITTLETON MA
 134  24/29   M4044   46:15   9:15 DOUGLAS MILLER         41 M   125 PEPPERELL MA            VERYFINE
 135  10/11   F4044   46:18   9:16 JUDY TIBBETTS          42 F    43 WESTFORD MA
 136   4/5    F5559   46:32   9:19 MARTHA RUNLEY          55 F   202 BILLERICA MA
 137  16/18   M3539   46:35   9:19 DANIEL FARLEY          36 M   121 WESTMINSTER MA          VERYFINE
 138  17/18   M5054   46:39   9:20 STEPHEN LOMBARDO       54 M   247 MAYNARD MA
 139  25/29   M4044   46:58   9:24 JIM PETKEWICH          42 M   298 LEOMINSTER MA
 140  17/18   M3539   47:11   9:27 MICHAEL COOK           39 M   147 QUINCY MA
 141  10/13   F3539   47:12   9:27 JANINA BUKOWSKI        35 F    19 STOW MA
 142  26/29   M4044   47:24   9:29 BOB VARTABEDIAN        43 M   290 NASHUA NH
 143  18/18   M5054   47:31   9:31 ROBERT SCHMITZ         51 M   165 ACTON MA
 144   5/6    F4549   47:42   9:33 MARGE GLADWIN          49 F   256 WESTFORD MA
 145   5/7    M5559   47:56   9:36 DICK PIERCE            55 M   231 DEDHAM MA
 146  27/29   M4044   49:06   9:50 DAVE COUTUER           42 M   204 WESTMINSTER MA
 147   6/7    M5559   49:14   9:51 JOHN LAVERY            55 M    37 ACTON MA
 148   3/3    M2529   49:15   9:51 THOMAS LECLAIR         26 M    14 BOXBORO MA
 149   6/6    F4549   49:36   9:56 JOAN DENARO            48 F    39 GROTON MA
 150  18/18   M3539   49:39   9:56 MICHAEL SEABOLDT       36 M   219 PEPPERELL MA
 10/20/2002  5:03PM


                                                                     Page 4
                     17TH ANNUAL VERYFINE-LITTLETON
                         5-MILE ROTARY ROAD RACE
October 20, 2002   5 Miles USATF Certified (#MA86017JMC)   Littleton, MA
Timing By:  GRANITE STATE RACE SERVICES  (603)863-2537      www.gsrs.com
================================================================================
PLACE DIV/TOT  DIV   TIME     PACE  NAME                   AG S RACE# CITY/STATE              VERYFINE
===== ======== ===== =======  ===== ====================== == = ===== ======================= =========
 151  28/29   M4044   50:26  10:06 WILLIAM VAN SCHALKWYK  44 M    66 GROTON MA
 152   2/3    F2529   51:28  10:18 MELINDA KING           26 F    40 TYNGSBORO MA
 153  11/13   F3539   51:43  10:21 DEBRA MCKENNA          36 F    41 DUNSTABLE MA
 154  29/29   M4044   51:45  10:21 JOHN PANNY             43 M   269 NASHUA NH
 155   5/5    F5559   53:54  10:47 MARY TYLER             55 F   137 FRAMINGHAM MA
 156   1/1    M7579   54:28  10:54 LOU PETER              77 M   145 METHUEN MA
 157   7/7    M5559   55:42  11:09 STEVE LEVITSKY         55 M   274 BOXBORO MA
 158  14/14   M4549   56:06  11:14 CHRIS DEMERS           47 M    21 BOLTON MA
 159   3/3    F2529   57:25  11:29 SARAH LEONARD          25 F   293 ASHBY MA
 160   1/1    F7074   58:19* 11:40 MARILOU CROHAN         70 F   212 LEOMINSTER MA
 161   1/1    M8099   58:29* 11:42 BILL STERN             83 M   112 LEXINGTON MA
 162  11/11   F4044 1:07:43  13:33 NANCY MULLINAX         44 F   162 CLINTON MA
 163  12/13   F3539 1:10:28  14:06 GRACE VELARDI          38 F   148 STOW MA
 164  13/13   F3539 1:10:29  14:06 LIBBY DILLING          36 F    29 STOW MA
 165   1/2    F6064 1:18:40  15:44 MARGARET GEEHAN        60 F   249 TOWNSEND MA
 166   2/2    F6064 1:18:41  15:45 ELLEN AMADON           64 F   248 TOWNSEND MA
 10/20/2002  5:03PM
* Under USATF Age-Group guideline